createdAt,value
2018-11-07T00:01:01.003Z,100664.07
2018-11-07T00:03:28.915Z,100663.52
2018-11-07T00:05:56.895Z,100667.19
2018-11-07T00:08:24.866Z,100666.51
2018-11-07T00:10:57.782Z,100665.70
2018-11-07T00:13:25.679Z,100667.02
2018-11-07T00:15:53.548Z,100665.89
2018-11-07T00:18:21.495Z,100660.12
2018-11-07T00:20:49.335Z,100658.28
2018-11-07T00:23:17.164Z,100669.69
2018-11-07T00:25:45.059Z,100672.69
2018-11-07T00:28:12.886Z,100667.36
2018-11-07T00:30:40.760Z,100674.09
2018-11-07T00:33:08.632Z,100675.38
2018-11-07T00:35:36.594Z,100670.69
2018-11-07T00:38:05.154Z,100670.42
2018-11-07T00:40:33.089Z,100668.90
2018-11-07T00:43:00.985Z,100672.08
2018-11-07T00:45:28.942Z,100672.34
2018-11-07T00:47:56.955Z,100671.03
2018-11-07T00:50:24.885Z,100663.27
2018-11-07T00:52:53.867Z,100663.89
2018-11-07T00:55:21.789Z,100660.37
2018-11-07T00:57:49.776Z,100666.73
2018-11-07T01:00:19.729Z,100661.47
2018-11-07T01:02:48.618Z,100649.86
2018-11-07T01:05:16.604Z,100652.61
2018-11-07T01:07:45.585Z,100653.67
2018-11-07T01:10:13.576Z,100651.48
2018-11-07T01:12:42.250Z,100650.14
2018-11-07T01:15:11.055Z,100646.06
2018-11-07T01:17:39.068Z,100644.39
2018-11-07T01:20:08.695Z,100648.39
2018-11-07T01:22:36.621Z,100656.37
2018-11-07T01:25:05.928Z,100651.20
2018-11-07T01:27:33.897Z,100646.45
2018-11-07T01:30:01.909Z,100649.09
2018-11-07T01:32:29.844Z,100647.25
2018-11-07T01:34:57.853Z,100644.02
2018-11-07T01:37:25.816Z,100645.61
2018-11-07T01:39:53.788Z,100644.75
2018-11-07T01:42:21.776Z,100649.12
2018-11-07T01:44:49.785Z,100658.41
2018-11-07T01:47:17.700Z,100651.75
2018-11-07T01:49:45.710Z,100660.22
2018-11-07T01:52:13.605Z,100663.27
2018-11-07T01:54:41.590Z,100663.94
2018-11-07T01:57:09.508Z,100671.41
2018-11-07T01:59:37.437Z,100659.36
2018-11-07T02:02:05.515Z,100673.33
2018-11-07T02:04:33.443Z,100670.25
2018-11-07T02:07:01.504Z,100659.98
2018-11-07T02:09:29.495Z,100663.00
2018-11-07T02:11:57.383Z,100665.81
2018-11-07T02:14:25.369Z,100657.57
2018-11-07T02:16:53.335Z,100654.25
2018-11-07T02:19:21.301Z,100661.31
2018-11-07T02:21:49.431Z,100663.66
2018-11-07T02:24:17.417Z,100668.52
2018-11-07T02:26:45.327Z,100663.39
2018-11-07T02:29:14.404Z,100656.48
2018-11-07T02:31:44.444Z,100655.17
2018-11-07T02:34:12.736Z,100655.78
2018-11-07T02:36:40.782Z,100648.84
2018-11-07T02:39:11.000Z,100643.14
2018-11-07T02:41:39.239Z,100653.49
2018-11-07T02:44:07.335Z,100651.91
2018-11-07T02:46:35.457Z,100651.30
2018-11-07T02:49:03.697Z,100647.91
2018-11-07T02:51:31.709Z,100654.98
2018-11-07T02:54:00.505Z,100660.77
2018-11-07T02:56:28.475Z,100666.45
2018-11-07T02:58:56.847Z,100668.26
2018-11-07T03:01:24.967Z,100662.94
2018-11-07T03:03:52.912Z,100668.81
2018-11-07T03:06:20.846Z,100665.33
2018-11-07T03:08:48.780Z,100658.84
2018-11-07T03:11:16.747Z,100660.13
2018-11-07T03:13:44.694Z,100661.05
2018-11-07T03:16:12.663Z,100666.45
2018-11-07T03:18:40.658Z,100661.72
2018-11-07T03:21:09.580Z,100665.29
2018-11-07T03:23:37.503Z,100671.52
2018-11-07T03:26:05.509Z,100669.02
2018-11-07T03:28:33.401Z,100663.27
2018-11-07T03:31:01.444Z,100671.64
2018-11-07T03:33:29.368Z,100675.62
2018-11-07T03:35:57.330Z,100677.87
2018-11-07T03:38:25.334Z,100676.05
2018-11-07T03:40:53.300Z,100685.83
2018-11-07T03:43:21.308Z,100684.02
2018-11-07T03:45:54.709Z,100673.39
2018-11-07T03:48:22.880Z,100682.71
2018-11-07T03:50:50.892Z,100670.79
2018-11-07T03:53:18.947Z,100672.59
2018-11-07T03:55:46.864Z,100673.91
2018-11-07T03:58:14.756Z,100672.96
2018-11-07T04:00:42.741Z,100673.39
2018-11-07T04:03:10.701Z,100668.89
2018-11-07T04:05:38.600Z,100662.81
2018-11-07T04:08:06.643Z,100661.86
2018-11-07T04:10:34.647Z,100660.91
2018-11-07T04:13:02.552Z,100661.28
2018-11-07T04:15:30.684Z,100668.78
2018-11-07T04:17:58.623Z,100654.77
2018-11-07T04:20:26.562Z,100653.31
2018-11-07T04:22:54.497Z,100646.28
2018-11-07T04:25:22.437Z,100644.60
2018-11-07T04:27:50.347Z,100648.24
2018-11-07T04:30:18.302Z,100649.22
2018-11-07T04:32:46.273Z,100654.53
2018-11-07T04:35:14.298Z,100654.25
2018-11-07T04:37:42.587Z,100656.43
2018-11-07T04:40:11.883Z,100652.94
2018-11-07T04:42:39.970Z,100652.36
2018-11-07T04:45:08.025Z,100649.80
2018-11-07T04:47:35.998Z,100655.58
2018-11-07T04:50:04.908Z,100648.48
2018-11-07T04:52:32.861Z,100658.30
2018-11-07T04:55:00.792Z,100651.73
2018-11-07T04:57:28.765Z,100650.16
2018-11-07T04:59:56.694Z,100649.38
2018-11-07T05:02:24.674Z,100643.66
2018-11-07T05:04:52.643Z,100642.00
2018-11-07T05:07:20.649Z,100640.66
2018-11-07T05:09:48.600Z,100648.24
2018-11-07T05:12:16.610Z,100656.19
2018-11-07T05:14:44.496Z,100656.58
2018-11-07T05:17:12.437Z,100663.89
2018-11-07T05:19:40.393Z,100654.75
2018-11-07T05:22:08.331Z,100666.36
2018-11-07T05:24:36.322Z,100651.91
2018-11-07T05:27:04.608Z,100649.55
2018-11-07T05:29:32.536Z,100653.80
2018-11-07T05:32:00.574Z,100662.30
2018-11-07T05:34:28.463Z,100668.53
2018-11-07T05:36:56.527Z,100667.21
2018-11-07T05:39:24.561Z,100671.13
2018-11-07T05:41:52.491Z,100669.05
2018-11-07T05:44:20.422Z,100675.77
2018-11-07T05:46:48.308Z,100683.72
2018-11-07T05:49:16.227Z,100681.61
2018-11-07T05:51:44.149Z,100689.49
2018-11-07T05:54:12.085Z,100684.69
2018-11-07T05:56:40.089Z,100685.55
2018-11-07T05:59:08.148Z,100694.33
2018-11-07T06:01:36.069Z,100700.02
2018-11-07T06:04:04.523Z,100703.01
2018-11-07T06:06:32.475Z,100699.44
2018-11-07T06:09:00.364Z,100702.83
2018-11-07T06:11:28.306Z,100707.87
2018-11-07T06:13:56.288Z,100706.47
2018-11-07T06:16:24.344Z,100712.52
2018-11-07T06:18:52.240Z,100719.89
2018-11-07T06:21:20.170Z,100719.03
2018-11-07T06:23:48.215Z,100719.39
2018-11-07T06:26:16.258Z,100715.79
2018-11-07T06:28:44.182Z,100706.12
2018-11-07T06:31:12.096Z,100711.94
2018-11-07T06:33:40.008Z,100710.59
2018-11-07T06:36:07.994Z,100703.44
2018-11-07T06:38:35.884Z,100700.95
2018-11-07T06:41:03.885Z,100701.25
2018-11-07T06:43:31.787Z,100712.09
2018-11-07T06:45:59.785Z,100706.84
2018-11-07T06:48:27.825Z,100707.64
2018-11-07T06:50:55.870Z,100721.83
2018-11-07T06:53:23.805Z,100715.36
2018-11-07T06:55:51.771Z,100716.08
2018-11-07T06:58:19.755Z,100708.10
2018-11-07T07:00:47.749Z,100713.00
2018-11-07T07:03:15.988Z,100712.80
2018-11-07T07:05:44.013Z,100713.59
2018-11-07T07:08:12.028Z,100714.73
2018-11-07T07:10:40.123Z,100719.04
2018-11-07T07:13:08.404Z,100718.19
2018-11-07T07:15:36.429Z,100718.58
2018-11-07T07:18:04.537Z,100716.84
2018-11-07T07:20:32.471Z,100722.27
2018-11-07T07:23:00.513Z,100724.13
2018-11-07T07:25:28.511Z,100708.86
2018-11-07T07:27:56.453Z,100714.91
2018-11-07T07:30:24.898Z,100716.77
2018-11-07T07:32:52.898Z,100705.05
2018-11-07T07:35:20.846Z,100718.98
2018-11-07T07:37:48.871Z,100721.60
2018-11-07T07:40:17.103Z,100712.67
2018-11-07T07:42:45.781Z,100724.91
2018-11-07T07:45:15.478Z,100727.34
2018-11-07T07:47:43.980Z,100726.06
2018-11-07T07:50:13.240Z,100731.45
2018-11-07T07:52:41.989Z,100726.98
2018-11-07T07:55:10.221Z,100725.92
2018-11-07T07:57:39.025Z,100728.22
2018-11-07T08:00:13.147Z,100723.81
2018-11-07T08:02:43.544Z,100725.86
2018-11-07T08:05:11.623Z,100721.71
2018-11-07T08:07:40.121Z,100726.82
2018-11-07T08:10:10.320Z,100721.50
2018-11-07T08:12:38.304Z,100727.92
2018-11-07T08:15:07.737Z,100725.23
2018-11-07T08:17:35.824Z,100727.31
2018-11-07T08:20:05.089Z,100737.89
2018-11-07T08:22:33.335Z,100730.92
2018-11-07T08:25:01.585Z,100723.67
2018-11-07T08:27:29.817Z,100722.48
2018-11-07T08:29:58.214Z,100726.14
2018-11-07T08:32:26.482Z,100719.56
2018-11-07T08:34:54.617Z,100721.63
2018-11-07T08:37:22.685Z,100722.17
2018-11-07T08:39:50.840Z,100721.80
2018-11-07T08:42:19.132Z,100725.45
2018-11-07T08:44:47.142Z,100728.30
2018-11-07T08:47:15.200Z,100723.17
2018-11-07T08:49:43.219Z,100723.69
2018-11-07T08:52:11.271Z,100711.86
2018-11-07T08:54:39.313Z,100720.36
2018-11-07T08:57:07.419Z,100725.33
2018-11-07T08:59:35.532Z,100719.38
2018-11-07T09:02:03.592Z,100720.50
2018-11-07T09:04:31.597Z,100718.06
2018-11-07T09:06:59.674Z,100717.53
2018-11-07T09:09:27.797Z,100716.91
2018-11-07T09:11:55.882Z,100723.33
2018-11-07T09:14:23.972Z,100723.95
2018-11-07T09:16:52.049Z,100718.82
2018-11-07T09:19:20.468Z,100716.74
2018-11-07T09:21:48.645Z,100718.20
2018-11-07T09:24:17.081Z,100718.78
2018-11-07T09:26:45.268Z,100723.34
2018-11-07T09:29:13.522Z,100724.23
2018-11-07T09:31:41.501Z,100728.76
2018-11-07T09:34:09.558Z,100726.13
2018-11-07T09:36:38.041Z,100722.36
2018-11-07T09:39:07.800Z,100718.16
2018-11-07T09:41:35.880Z,100708.92
2018-11-07T09:44:05.312Z,100710.86
2018-11-07T09:46:33.370Z,100704.87
2018-11-07T09:49:01.518Z,100708.45
2018-11-07T09:51:29.931Z,100712.95
2018-11-07T09:53:58.177Z,100710.89
2018-11-07T09:56:26.346Z,100702.98
2018-11-07T09:58:55.351Z,100706.22
2018-11-07T10:01:23.472Z,100698.70
2018-11-07T10:03:51.729Z,100701.02
2018-11-07T10:06:19.767Z,100693.80
2018-11-07T10:08:47.699Z,100696.50
2018-11-07T10:11:15.688Z,100697.33
2018-11-07T10:13:43.650Z,100698.27
2018-11-07T10:16:11.696Z,100696.29
2018-11-07T10:18:39.677Z,100696.06
2018-11-07T10:21:07.552Z,100697.09
2018-11-07T10:23:35.590Z,100696.55
2018-11-07T10:26:04.608Z,100694.02
2018-11-07T10:28:32.791Z,100690.60
2018-11-07T10:31:00.849Z,100693.63
2018-11-07T10:33:28.972Z,100691.97
2018-11-07T10:35:57.053Z,100693.83
2018-11-07T10:38:25.175Z,100692.80
2018-11-07T10:40:53.259Z,100696.80
2018-11-07T10:43:22.841Z,100690.34
2018-11-07T10:45:51.021Z,100687.81
2018-11-07T10:48:19.069Z,100687.77
2018-11-07T10:50:47.159Z,100680.52
2018-11-07T10:53:15.225Z,100684.72
2018-11-07T10:55:43.276Z,100680.38
2018-11-07T10:58:11.380Z,100688.00
2018-11-07T11:00:44.909Z,100686.42
2018-11-07T11:03:18.401Z,100677.66
2018-11-07T11:05:46.762Z,100671.63
2018-11-07T11:08:14.980Z,100669.20
2018-11-07T11:10:43.114Z,100670.52
2018-11-07T11:13:12.255Z,100681.80
2018-11-07T11:15:40.278Z,100680.66
2018-11-07T11:18:08.346Z,100672.81
2018-11-07T11:20:36.504Z,100677.87
2018-11-07T11:23:04.794Z,100678.11
2018-11-07T11:25:33.063Z,100679.19
2018-11-07T11:28:01.211Z,100675.62
2018-11-07T11:30:29.456Z,100681.48
2018-11-07T11:32:57.598Z,100687.81
2018-11-07T11:35:25.686Z,100686.09
2018-11-07T11:37:53.772Z,100689.85
2018-11-07T11:40:21.859Z,100686.36
2018-11-07T11:42:50.000Z,100692.47
2018-11-07T11:45:18.187Z,100690.11
2018-11-07T11:47:46.522Z,100688.79
2018-11-07T11:50:17.792Z,100698.27
2018-11-07T11:52:46.721Z,100692.02
2018-11-07T11:55:14.957Z,100698.02
2018-11-07T11:57:43.785Z,100695.30
2018-11-07T12:00:14.556Z,100694.58
2018-11-07T12:02:42.709Z,100685.44
2018-11-07T12:05:12.143Z,100695.48
2018-11-07T12:07:40.643Z,100693.83
2018-11-07T12:10:15.613Z,100693.02
2018-11-07T12:12:45.485Z,100689.01
2018-11-07T12:15:14.089Z,100690.47
2018-11-07T12:17:42.279Z,100691.45
2018-11-07T12:20:10.975Z,100689.25
2018-11-07T12:22:39.228Z,100687.48
2018-11-07T12:25:13.936Z,100685.44
2018-11-07T12:27:45.297Z,100688.25
2018-11-07T12:30:15.853Z,100687.87
2018-11-07T12:32:45.375Z,100684.21
2018-11-07T12:35:15.057Z,100682.69
2018-11-07T12:37:43.230Z,100672.61
2018-11-07T12:40:11.762Z,100675.70
2018-11-07T12:42:39.822Z,100669.08
2018-11-07T12:45:09.512Z,100669.97
2018-11-07T12:47:38.419Z,100673.52
2018-11-07T12:50:10.943Z,100668.72
2018-11-07T12:52:39.026Z,100673.23
2018-11-07T12:55:08.422Z,100675.04
2018-11-07T12:57:37.024Z,100668.84
2018-11-07T13:00:07.304Z,100674.55
2018-11-07T13:02:35.362Z,100677.27
2018-11-07T13:05:03.463Z,100687.82
2018-11-07T13:07:31.566Z,100686.50
2018-11-07T13:09:59.941Z,100685.48
2018-11-07T13:12:28.005Z,100685.45
2018-11-07T13:14:56.177Z,100687.25
2018-11-07T13:17:24.242Z,100685.87
2018-11-07T13:19:52.225Z,100683.60
2018-11-07T13:22:20.300Z,100688.02
2018-11-07T13:24:48.318Z,100691.37
2018-11-07T13:27:16.428Z,100689.66
2018-11-07T13:29:44.404Z,100698.02
2018-11-07T13:32:12.427Z,100695.34
2018-11-07T13:34:40.524Z,100695.72
2018-11-07T13:37:08.734Z,100695.97
2018-11-07T13:39:36.734Z,100698.65
2018-11-07T13:42:04.991Z,100701.33
2018-11-07T13:44:33.076Z,100697.36
2018-11-07T13:47:01.172Z,100697.26
2018-11-07T13:49:29.192Z,100695.84
2018-11-07T13:51:57.184Z,100700.69
2018-11-07T13:54:25.262Z,100704.45
2018-11-07T13:56:53.359Z,100708.94
2018-11-07T13:59:21.491Z,100709.34
2018-11-07T14:01:49.471Z,100711.91
2018-11-07T14:04:17.445Z,100717.65
2018-11-07T14:06:45.520Z,100708.72
2018-11-07T14:09:13.650Z,100702.42
2018-11-07T14:11:41.753Z,100706.88
2018-11-07T14:14:09.857Z,100710.88
2018-11-07T14:16:38.229Z,100710.48
2018-11-07T14:19:06.802Z,100711.69
2018-11-07T14:21:34.865Z,100703.75
2018-11-07T14:24:03.022Z,100712.53
2018-11-07T14:26:31.196Z,100715.39
2018-11-07T14:28:59.314Z,100714.11
2018-11-07T14:31:27.450Z,100714.47
2018-11-07T14:33:56.665Z,100723.48
2018-11-07T14:36:25.509Z,100723.37
2018-11-07T14:38:53.607Z,100724.65
2018-11-07T14:41:21.810Z,100728.66
2018-11-07T14:43:50.150Z,100732.16
2018-11-07T14:46:18.323Z,100735.72
2018-11-07T14:48:46.278Z,100737.03
2018-11-07T14:51:14.256Z,100738.64
2018-11-07T14:53:42.886Z,100742.69
2018-11-07T14:56:10.923Z,100750.14
2018-11-07T14:58:39.208Z,100754.03
2018-11-07T15:01:07.260Z,100760.16
2018-11-07T15:03:35.456Z,100756.67
2018-11-07T15:06:03.583Z,100755.27
2018-11-07T15:08:31.644Z,100763.03
2018-11-07T15:10:59.539Z,100770.57
2018-11-07T15:13:27.514Z,100770.53
2018-11-07T15:15:55.541Z,100770.57
2018-11-07T15:18:23.625Z,100766.16
2018-11-07T15:20:51.767Z,100771.71
2018-11-07T15:23:19.809Z,100771.22
2018-11-07T15:25:47.898Z,100768.09
2018-11-07T15:28:16.768Z,100773.39
2018-11-07T15:30:44.857Z,100767.56
2018-11-07T15:33:12.895Z,100772.85
2018-11-07T15:35:40.951Z,100765.66
2018-11-07T15:38:08.944Z,100778.64
2018-11-07T15:40:37.048Z,100776.48
2018-11-07T15:43:05.112Z,100780.45
2018-11-07T15:45:33.188Z,100784.75
2018-11-07T15:50:44.872Z,100779.61
2018-11-07T15:53:12.989Z,100791.61
2018-11-07T15:55:40.998Z,100788.52
2018-11-07T15:58:09.114Z,100792.48
2018-11-07T16:00:37.324Z,100787.59
2018-11-07T16:03:05.492Z,100788.61
2018-11-07T16:05:33.612Z,100793.38
2018-11-07T16:08:01.624Z,100799.41
2018-11-07T16:10:30.684Z,100796.36
2018-11-07T16:12:58.713Z,100796.00
2018-11-07T16:15:26.898Z,100801.45
2018-11-07T16:17:54.855Z,100801.00
2018-11-07T16:20:22.932Z,100800.13
2018-11-07T16:22:50.980Z,100802.90
2018-11-07T16:25:18.978Z,100806.28
2018-11-07T16:27:46.909Z,100803.59
2018-11-07T16:30:18.324Z,100811.95
2018-11-07T16:32:46.358Z,100808.75
2018-11-07T16:35:14.810Z,100817.34
2018-11-07T16:37:43.094Z,100810.78
2018-11-07T16:40:12.598Z,100814.31
2018-11-07T16:42:41.362Z,100822.34
2018-11-07T16:45:10.397Z,100822.74
2018-11-07T16:47:38.432Z,100821.73
2018-11-07T16:50:07.513Z,100829.08
2018-11-07T16:52:36.633Z,100835.36
2018-11-07T16:55:04.728Z,100835.86
2018-11-07T16:57:32.905Z,100836.75
2018-11-07T17:00:00.864Z,100840.27
2018-11-07T17:02:29.020Z,100840.02
2018-11-07T17:04:57.114Z,100848.55
2018-11-07T17:07:25.117Z,100853.02
2018-11-07T17:09:53.132Z,100851.58
2018-11-07T17:12:21.204Z,100854.77
2018-11-07T17:14:49.376Z,100852.95
2018-11-07T17:17:17.517Z,100850.08
2018-11-07T17:19:45.570Z,100852.73
2018-11-07T17:22:13.716Z,100860.71
2018-11-07T17:24:41.935Z,100858.45
2018-11-07T17:27:14.141Z,100867.70
2018-11-07T17:29:42.144Z,100862.81
2018-11-07T17:32:10.287Z,100869.52
2018-11-07T17:34:43.811Z,100868.14
2018-11-07T17:37:12.579Z,100865.88
2018-11-07T17:39:40.656Z,100869.08
2018-11-07T17:42:08.814Z,100865.11
2018-11-07T17:44:36.888Z,100870.56
2018-11-07T17:47:05.414Z,100877.28
2018-11-07T17:49:34.286Z,100885.77
2018-11-07T17:52:02.534Z,100885.81
2018-11-07T17:54:33.520Z,100896.66
2018-11-07T17:57:02.015Z,100900.12
2018-11-07T17:59:30.041Z,100900.23
2018-11-07T18:01:58.861Z,100903.88
2018-11-07T18:04:27.042Z,100910.86
2018-11-07T18:06:55.052Z,100914.09
2018-11-07T18:09:23.173Z,100927.58
2018-11-07T18:11:52.298Z,100941.18
2018-11-07T18:14:20.440Z,100949.86
2018-11-07T18:16:52.549Z,100967.84
2018-11-07T18:19:20.739Z,100966.48
2018-11-07T18:21:48.784Z,100964.66
2018-11-07T18:24:17.758Z,100965.54
2018-11-07T18:26:45.870Z,100966.53
2018-11-07T18:29:13.901Z,100973.13
2018-11-07T18:31:41.885Z,100965.66
2018-11-07T18:34:09.880Z,100976.71
2018-11-07T18:36:41.114Z,100969.69
2018-11-07T18:39:10.761Z,100976.34
2018-11-07T18:41:39.034Z,100973.75
2018-11-07T18:44:07.014Z,100974.97
2018-11-07T18:46:35.070Z,100978.30
2018-11-07T18:49:03.200Z,100982.52
2018-11-07T18:51:31.277Z,100977.59
2018-11-07T18:53:59.330Z,100978.80
2018-11-07T18:56:27.368Z,100980.67
2018-11-07T18:58:55.482Z,100976.92
2018-11-07T19:01:23.335Z,100978.25
2018-11-07T19:03:51.289Z,100979.80
2018-11-07T19:06:19.525Z,100978.65
2018-11-07T19:08:47.522Z,100980.67
2018-11-07T19:11:15.511Z,100982.45
2018-11-07T19:13:43.525Z,100979.42
2018-11-07T19:16:11.618Z,100982.33
2018-11-07T19:18:39.587Z,100983.58
2018-11-07T19:21:08.728Z,100980.23
2018-11-07T19:23:36.764Z,100989.75
2018-11-07T19:26:05.600Z,100986.94
2018-11-07T19:28:33.592Z,101004.66
2018-11-07T19:31:02.403Z,101003.84
2018-11-07T19:33:30.506Z,101002.45
2018-11-07T19:35:58.568Z,101001.65
2018-11-07T19:38:26.614Z,100995.60
2018-11-07T19:40:57.514Z,101004.28
2018-11-07T19:43:28.895Z,101006.47
2018-11-07T19:46:02.494Z,101012.27
2018-11-07T19:48:30.479Z,101016.86
2018-11-07T19:50:58.413Z,101018.00
2018-11-07T19:53:26.727Z,101019.98
2018-11-07T19:55:55.037Z,101021.25
2018-11-07T19:58:23.004Z,101025.29
2018-11-07T20:00:51.026Z,101030.19
2018-11-07T20:03:19.030Z,101033.01
2018-11-07T20:05:47.061Z,101035.85
2018-11-07T20:08:15.199Z,101041.73
2018-11-07T20:10:43.423Z,101055.38
2018-11-07T20:13:11.401Z,101057.62
2018-11-07T20:15:39.425Z,101056.35
2018-11-07T20:18:07.509Z,101065.30
2018-11-07T20:20:35.540Z,101067.58
2018-11-07T20:23:03.673Z,101068.38
2018-11-07T20:25:31.798Z,101070.14
2018-11-07T20:27:59.929Z,101071.84
2018-11-07T20:30:27.941Z,101070.20
2018-11-07T20:32:55.980Z,101060.52
2018-11-07T20:35:24.030Z,101059.15
2018-11-07T20:37:52.096Z,101060.22
2018-11-07T20:40:21.064Z,101063.94
2018-11-07T20:42:49.093Z,101068.82
2018-11-07T20:45:17.493Z,101069.20
2018-11-07T20:47:46.116Z,101085.45
2018-11-07T20:50:16.358Z,101088.16
2018-11-07T20:52:45.693Z,101087.97
2018-11-07T20:55:14.485Z,101093.90
2018-11-07T20:57:42.859Z,101095.27
2018-11-07T21:00:13.022Z,101103.48
2018-11-07T21:02:42.025Z,101097.41
2018-11-07T21:05:10.374Z,101106.27
2018-11-07T21:07:38.845Z,101116.04
2018-11-07T21:10:10.246Z,101115.09
2018-11-07T21:12:38.441Z,101122.56
2018-11-07T21:15:07.146Z,101119.11
2018-11-07T21:17:35.173Z,101116.63
2018-11-07T21:20:03.977Z,101109.52
2018-11-07T21:22:32.006Z,101118.01
2018-11-07T21:24:59.991Z,101121.97
2018-11-07T21:27:28.024Z,101123.72
2018-11-07T21:29:56.065Z,101128.52
2018-11-07T21:32:24.334Z,101135.92
2018-11-07T21:34:54.220Z,101140.08
2018-11-07T21:37:22.410Z,101131.13
2018-11-07T21:39:50.536Z,101135.17
2018-11-07T21:42:18.586Z,101139.59
2018-11-07T21:44:46.824Z,101136.17
2018-11-07T21:47:14.918Z,101140.96
2018-11-07T21:49:43.067Z,101139.70
2018-11-07T21:52:11.118Z,101143.23
2018-11-07T21:54:39.170Z,101145.44
2018-11-07T21:57:07.197Z,101140.45
2018-11-07T21:59:35.309Z,101142.66
2018-11-07T22:02:03.418Z,101137.73
2018-11-07T22:04:31.823Z,101147.19
2018-11-07T22:06:59.864Z,101151.39
2018-11-07T22:09:27.917Z,101148.38
2018-11-07T22:11:55.975Z,101157.18
2018-11-07T22:14:24.028Z,101158.50
2018-11-07T22:16:52.126Z,101156.16
2018-11-07T22:19:20.121Z,101156.67
2018-11-07T22:21:48.130Z,101160.55
2018-11-07T22:24:16.207Z,101164.74
2018-11-07T22:26:44.302Z,101170.45
2018-11-07T22:29:12.345Z,101176.73
2018-11-07T22:31:40.307Z,101173.61
2018-11-07T22:34:08.218Z,101160.16
2018-11-07T22:36:36.227Z,101167.27
2018-11-07T22:39:06.986Z,101170.66
2018-11-07T22:41:34.931Z,101179.52
2018-11-07T22:44:02.945Z,101187.39
2018-11-07T22:46:30.949Z,101181.65
2018-11-07T22:48:58.987Z,101182.91
2018-11-07T22:51:27.017Z,101184.09
2018-11-07T22:53:54.912Z,101187.50
2018-11-07T22:56:22.848Z,101193.67
2018-11-07T22:58:50.783Z,101198.09
2018-11-07T23:01:22.532Z,101199.32
2018-11-07T23:03:51.628Z,101205.40
2018-11-07T23:06:19.544Z,101205.83
2018-11-07T23:08:47.618Z,101215.00
2018-11-07T23:11:15.560Z,101216.17
2018-11-07T23:13:43.502Z,101220.05
2018-11-07T23:16:11.466Z,101227.94
2018-11-07T23:18:39.444Z,101233.16
2018-11-07T23:21:07.427Z,101240.91
2018-11-07T23:23:35.425Z,101243.25
2018-11-07T23:26:03.477Z,101238.00
2018-11-07T23:28:31.437Z,101243.70
2018-11-07T23:30:59.362Z,101246.25
2018-11-07T23:33:27.329Z,101242.94
2018-11-07T23:35:55.250Z,101249.63
2018-11-07T23:38:23.278Z,101249.99
2018-11-07T23:40:51.364Z,101250.91
2018-11-07T23:43:19.394Z,101249.44
2018-11-07T23:45:47.437Z,101252.08
2018-11-07T23:48:15.442Z,101252.29
2018-11-07T23:50:43.415Z,101255.78
2018-11-07T23:53:13.320Z,101256.18
2018-11-07T23:55:42.838Z,101257.77
2018-11-07T23:58:11.080Z,101256.20
